Terminal Aerodrome Forecast
Issued by NWS Atlanta, GA

Home | Current Version | Previous Version | Text Only | Print | Product List | Glossary On
Versions: 1 2 3 4 5 6 7 8 9 10 11 12 13 14 15 16 17 18 19 20 21 22 23 24 25 26 27 28 29 30 31 32
000
FTUS42 KFFC 251731
TAFAHN
TAF
KAHN 251731Z 2518/2618 11006KT P6SM BKN045
     FM252100 12006KT P6SM VCSH BKN045
      TEMPO 2522/2524 3SM -TSRA BKN025CB
     FM260100 12005KT P6SM VCSH SCT025 BKN040
     FM260600 12005KT P6SM VCSH BKN015
     FM260800 12004KT 4SM BR BKN007
     FM261400 13004KT 6SM BR OVC015=

USA.gov is the U.S. government's official web portal to all federal, state and local government web resources and services.